Terminal Aerodrome Forecast
Issued by NWS

Home | Current Version | Previous Version | Text Only | Print | Product List | Glossary Off
Versions: 1 2 3 4 5 6 7 8 9 10 11 12 13 14 15 16 17 18

864
FTUS43 KBIS 072332
TAFMOT
TAF
KMOT 072332Z 0800/0824 32034G45KT P6SM BKN025
     FM080600 31028G41KT P6SM BKN025
     FM081200 31019G28KT P6SM BKN020
     FM081900 31021G30KT P6SM BKN035
     FM082300 31012KT P6SM BKN070=

USA.gov is the U.S. government's official web portal to all federal, state and local government web resources and services.